Time;durP1;ratioP1;P1;durP2;ratioP2;P2;SDS_P1;SDS_P2;PMS_P1;PMS_P2;Temp;Humidity;BMP_temperature;BMP_pressure;BME280_temperature;BME280_humidity;BME280_pressure;Samples;Min_cycle;Max_cycle;Signal;HPM_P1;HPM_P2
2022/08/12 00:43:28;;;;;;;0.60;0.60;;;;;;;29.73;37.82;98954.69;5111798;28;20100;-57
2022/08/12 00:48:40;;;;;;;1.65;0.50;;;;;;;29.73;37.71;98951.88;5111730;28;20058;-57
2022/08/12 00:51:07;;;;;;;0.77;0.60;;;;;;;29.71;38.07;98951.50;5111732;28;20031;-56
2022/08/12 00:53:34;;;;;;;0.50;0.50;;;;;;;29.74;37.72;98953.47;5111697;28;20044;-56
2022/08/12 00:56:00;;;;;;;0.73;0.50;;;;;;;29.72;38.05;98945.44;5111642;28;20043;-56
2022/08/12 00:58:29;;;;;;;0.52;0.43;;;;;;;29.72;37.82;98951.09;5111465;28;20471;-56
2022/08/12 01:01:00;;;;;;;0.82;0.60;;;;;;;29.71;37.77;98948.69;5111297;28;20044;-57
2022/08/12 01:11:27;;;;;;;0.80;0.50;;;;;;;29.74;37.96;98942.19;5111453;28;20047;-56
2022/08/12 01:11:50;;;;;;;0.70;0.50;;;;;;;29.74;37.97;98945.00;5111383;28;20442;-57
2022/08/12 01:14:18;;;;;;;0.85;0.50;;;;;;;29.73;37.66;98946.25;5111368;28;20391;-57
2022/08/12 01:16:45;;;;;;;0.77;0.68;;;;;;;29.73;37.98;98946.25;5111255;28;20465;-57
2022/08/12 01:19:11;;;;;;;0.88;0.60;;;;;;;29.73;38.03;98952.66;5111084;28;20061;-57
2022/08/12 01:22:11;;;;;;;1.05;0.60;;;;;;;29.74;38.01;98945.00;5111085;28;20040;-57
2022/08/12 01:24:55;;;;;;;0.73;0.63;;;;;;;29.73;37.66;98947.03;5111216;28;20039;-57
2022/08/12 01:27:23;;;;;;;0.60;0.50;;;;;;;29.74;37.72;98954.25;5111068;28;20112;-57
2022/08/12 01:29:52;;;;;;;0.57;0.50;;;;;;;29.74;37.79;98950.63;5111209;28;20051;-56
2022/08/12 01:32:21;;;;;;;0.80;0.50;;;;;;;29.73;37.63;98946.25;5111061;28;20134;-57
2022/08/12 01:35:09;;;;;;;0.60;0.50;;;;;;;29.73;38.11;98951.88;5111127;28;20127;-57
2022/08/12 01:37:44;;;;;;;0.60;0.50;;;;;;;29.73;38.10;98955.50;5110427;28;20060;-56
2022/08/12 01:40:10;;;;;;;0.80;0.60;;;;;;;29.74;38.17;98947.81;5110841;28;20054;-56
2022/08/12 01:42:46;;;;;;;0.40;0.40;;;;;;;29.73;37.85;98947.03;5110859;28;20035;-57
2022/08/12 01:45:13;;;;;;;0.60;0.50;;;;;;;29.72;38.10;98951.09;5110893;28;20043;-57
2022/08/12 01:47:56;;;;;;;1.23;0.60;;;;;;;29.73;38.10;98958.31;5110973;28;20048;-57
2022/08/12 01:50:53;;;;;;;0.77;0.57;;;;;;;29.72;37.75;98953.09;5110723;28;20149;-57
2022/08/12 01:53:24;;;;;;;0.98;0.70;;;;;;;29.75;37.94;98960.66;5110684;28;20059;-56
2022/08/12 01:55:51;;;;;;;0.65;0.60;;;;;;;29.73;38.00;98960.34;5110720;28;20075;-56
2022/08/12 01:58:26;;;;;;;0.47;0.40;;;;;;;29.74;37.98;98953.47;5110733;28;20575;-56
2022/08/12 02:00:59;;;;;;;0.73;0.57;;;;;;;29.72;38.03;98956.72;5110793;28;20407;-56
2022/08/12 02:13:01;;;;;;;0.68;0.55;;;;;;;29.74;38.03;98970.38;5106695;28;20280;-57
2022/08/12 02:15:39;;;;;;;0.90;0.60;;;;;;;29.73;38.03;98957.53;5110432;28;20054;-56
2022/08/12 02:18:19;;;;;;;0.70;0.60;;;;;;;29.73;38.24;98965.97;5110492;28;20044;-56
2022/08/12 02:21:12;;;;;;;0.55;0.50;;;;;;;29.73;37.86;98960.34;5110144;28;20046;-57
2022/08/12 02:23:39;;;;;;;0.68;0.47;;;;;;;29.71;37.88;98955.13;5110084;28;20040;-57
2022/08/12 02:26:08;;;;;;;0.80;0.68;;;;;;;29.72;38.21;98962.38;5110152;28;20100;-57
2022/08/12 02:28:35;;;;;;;0.88;0.63;;;;;;;29.73;37.95;98951.88;5110230;28;20534;-57
2022/08/12 02:31:05;;;;;;;0.70;0.60;;;;;;;29.73;37.91;98963.94;5110206;28;20460;-57
2022/08/12 02:33:32;;;;;;;0.95;0.57;;;;;;;29.72;37.84;98950.28;5110255;28;20063;-57
2022/08/12 02:36:01;;;;;;;1.05;0.60;;;;;;;29.74;37.96;98959.09;5110150;28;20053;-57
2022/08/12 02:38:29;;;;;;;0.73;0.55;;;;;;;29.73;38.24;98955.50;5110157;28;20498;-57
2022/08/12 02:40:57;;;;;;;0.70;0.60;;;;;;;29.74;38.05;98959.09;5110048;28;20070;-57
2022/08/12 02:43:36;;;;;;;1.08;0.70;;;;;;;29.74;38.19;98953.47;5110115;28;20035;-56
2022/08/12 02:46:17;;;;;;;1.10;0.63;;;;;;;29.73;37.94;98949.06;5110057;28;20100;-57
2022/08/12 02:48:45;;;;;;;1.15;0.80;;;;;;;29.74;37.92;98947.81;5110044;28;20052;-57
2022/08/12 02:51:19;;;;;;;0.82;0.57;;;;;;;29.71;38.27;98940.25;5109963;28;20051;-57
2022/08/12 02:53:46;;;;;;;0.73;0.50;;;;;;;29.74;38.26;98953.47;5109994;28;20047;-56
2022/08/12 02:56:12;;;;;;;0.75;0.60;;;;;;;29.73;38.05;98940.59;5109787;28;20568;-56
2022/08/12 02:58:39;;;;;;;0.75;0.43;;;;;;;29.74;38.21;98933.72;5109940;28;20579;-56
2022/08/12 03:01:08;;;;;;;0.60;0.50;;;;;;;29.74;37.94;98942.19;5106205;28;20059;-57
2022/08/12 03:03:35;;;;;;;1.13;0.63;;;;;;;29.74;38.26;98936.53;5109715;28;20445;-56
2022/08/12 03:06:08;;;;;;;1.33;0.60;;;;;;;29.74;37.92;98937.34;5109747;28;20050;-57
2022/08/12 03:08:42;;;;;;;0.90;0.60;;;;;;;29.75;38.01;98940.94;5109799;28;20078;-57
2022/08/12 03:11:46;;;;;;;0.50;0.50;;;;;;;29.74;38.21;98937.34;5106767;28;20044;-57
2022/08/12 03:14:16;;;;;;;0.77;0.60;;;;;;;29.74;38.19;98934.50;5107294;28;20073;-57
2022/08/12 03:16:49;;;;;;;1.35;0.65;;;;;;;29.74;38.29;98934.50;5109756;28;20044;-57
2022/08/12 03:19:19;;;;;;;0.50;0.50;;;;;;;29.73;37.97;98940.59;5109589;28;20040;-57
2022/08/12 03:21:44;;;;;;;1.58;0.70;;;;;;;29.73;37.98;98944.22;5109536;28;20082;-57
2022/08/12 03:24:16;;;;;;;0.80;0.60;;;;;;;29.71;38.23;98940.25;5109460;28;20075;-57
2022/08/12 03:26:46;;;;;;;0.70;0.60;;;;;;;29.75;38.04;98943.75;5109522;28;20048;-57
2022/08/12 03:29:13;;;;;;;0.40;0.40;;;;;;;29.74;38.19;98948.59;5109579;28;20396;-57
2022/08/12 03:31:38;;;;;;;1.25;0.60;;;;;;;29.73;37.95;98938.56;5109536;28;20134;-56
2022/08/12 03:34:11;;;;;;;1.58;0.60;;;;;;;29.74;37.89;98936.53;5111824;28;20142;-56
2022/08/12 03:36:39;;;;;;;0.50;0.50;;;;;;;29.75;38.09;98938.13;5112847;28;20052;-57
2022/08/12 03:42:04;;;;;;;0.98;0.70;;;;;;;29.75;38.30;98938.91;5112929;28;20078;-57
2022/08/12 04:01:06;;;;;;;0.80;0.60;;;;;;;29.76;38.23;98934.06;5112469;28;21049;-56
2022/08/12 04:03:51;;;;;;;0.77;0.60;;;;;;;29.77;38.21;98938.44;5112363;28;20042;-57
2022/08/12 04:06:21;;;;;;;0.52;0.50;;;;;;;29.76;38.29;98937.66;5112534;28;20043;-56
2022/08/12 04:08:52;;;;;;;0.80;0.60;;;;;;;29.76;38.02;98936.88;5112370;28;20043;-56
2022/08/12 04:14:18;;;;;;;0.85;0.60;;;;;;;29.78;38.33;98940.03;5112560;28;20595;-57
2022/08/12 04:16:45;;;;;;;0.80;0.60;;;;;;;29.79;38.12;98941.59;5112566;28;20063;-56
2022/08/12 04:19:12;;;;;;;0.75;0.57;;;;;;;29.78;37.85;98937.22;5112191;28;20063;-56
2022/08/12 04:21:38;;;;;;;1.10;0.80;;;;;;;29.79;38.24;98939.59;5112037;28;20131;-57
2022/08/12 04:24:04;;;;;;;0.77;0.60;;;;;;;29.79;38.07;98938.78;5112257;28;20449;-56
2022/08/12 04:26:30;;;;;;;0.63;0.50;;;;;;;29.80;37.71;98941.19;5112289;28;20574;-56
2022/08/12 04:28:57;;;;;;;0.90;0.60;;;;;;;29.81;38.16;98939.16;5111882;28;20050;-56
2022/08/12 04:31:37;;;;;;;0.50;0.47;;;;;;;29.82;37.88;98943.53;5093785;28;20138;-57
2022/08/12 04:34:03;;;;;;;0.75;0.68;;;;;;;29.81;38.27;98941.97;5112042;28;20097;-57
2022/08/12 04:36:30;;;;;;;0.90;0.57;;;;;;;29.81;38.09;98939.16;5111920;28;20036;-57
2022/08/12 04:38:57;;;;;;;1.05;0.70;;;;;;;29.83;37.93;98950.75;5111719;28;20079;-56
2022/08/12 04:41:23;;;;;;;0.60;0.60;;;;;;;29.82;38.24;98946.38;5111634;28;20483;-57
2022/08/12 04:43:50;;;;;;;1.00;0.63;;;;;;;29.82;38.05;98949.19;5111657;28;20048;-56
2022/08/12 04:46:15;;;;;;;0.68;0.50;;;;;;;29.82;38.26;98949.97;5111264;28;20043;-57
2022/08/12 04:48:41;;;;;;;0.75;0.50;;;;;;;29.83;38.05;98951.56;5111801;28;20132;-56
2022/08/12 04:51:06;;;;;;;0.68;0.50;;;;;;;29.81;38.17;98941.97;5111812;28;20040;-56
2022/08/12 04:53:32;;;;;;;1.08;0.63;;;;;;;29.82;37.92;98944.34;5111727;28;20123;-56
2022/08/12 04:55:59;;;;;;;0.77;0.60;;;;;;;29.83;37.89;98947.94;5111778;28;20050;-56
2022/08/12 04:58:25;;;;;;;0.73;0.60;;;;;;;29.85;38.19;98948.28;5111752;28;20089;-56
2022/08/12 05:00:53;;;;;;;0.70;0.60;;;;;;;29.82;38.01;98944.34;5111931;28;20056;-57
2022/08/12 05:03:19;;;;;;;0.82;0.50;;;;;;;29.84;37.83;98955.94;5111596;28;20039;-57
2022/08/12 05:05:45;;;;;;;1.02;0.65;;;;;;;29.84;38.07;98950.31;5111318;28;20051;-57
2022/08/12 05:08:16;;;;;;;0.65;0.50;;;;;;;29.84;38.06;98952.34;5111290;28;20047;-56
2022/08/12 05:10:45;;;;;;;0.45;0.40;;;;;;;29.84;37.81;98943.88;5108901;28;20423;-56
2022/08/12 05:13:14;;;;;;;0.65;0.50;;;;;;;29.85;37.98;98949.06;5111221;28;20067;-57
2022/08/12 05:15:42;;;;;;;1.20;0.60;;;;;;;29.85;38.13;98953.91;5111376;28;20050;-56
2022/08/12 05:18:07;;;;;;;0.80;0.57;;;;;;;29.83;37.81;98940.28;5111474;28;20074;-56
2022/08/12 05:20:33;;;;;;;1.02;0.70;;;;;;;29.84;37.73;98939.03;5111232;28;20083;-57
2022/08/12 05:23:09;;;;;;;0.90;0.60;;;;;;;29.83;38.04;98940.28;5111193;28;20344;-57
2022/08/12 05:25:35;;;;;;;1.00;0.60;;;;;;;29.85;37.82;98939.81;5111325;28;20051;-56
2022/08/12 05:28:01;;;;;;;0.70;0.60;;;;;;;29.84;38.20;98943.88;5111111;28;20488;-56
2022/08/12 05:30:27;;;;;;;0.98;0.70;;;;;;;29.85;37.73;98949.06;5111007;28;20055;-57
2022/08/12 05:32:56;;;;;;;0.50;0.40;;;;;;;29.84;38.00;98943.88;5110921;28;20039;-56
2022/08/12 05:35:21;;;;;;;0.60;0.57;;;;;;;29.85;37.73;98942.63;5110987;28;20071;-57
2022/08/12 05:37:47;;;;;;;1.02;0.55;;;;;;;29.84;37.89;98944.66;5111124;28;20070;-57
2022/08/12 05:40:13;;;;;;;0.80;0.63;;;;;;;29.85;38.12;98948.28;5110938;28;20094;-57
2022/08/12 05:42:38;;;;;;;1.00;0.60;;;;;;;29.85;37.87;98948.28;5110750;28;20046;-57
2022/08/12 05:45:05;;;;;;;0.90;0.60;;;;;;;29.85;38.11;98937.78;5110848;28;20052;-57
2022/08/12 05:47:32;;;;;;;0.82;0.63;;;;;;;29.86;37.89;98952.69;5110587;28;20063;-56
2022/08/12 05:49:58;;;;;;;0.55;0.50;;;;;;;29.84;38.23;98955.94;5110665;28;20044;-56
2022/08/12 05:52:24;;;;;;;1.10;0.70;;;;;;;29.86;37.83;98949.84;5110656;28;20048;-57
2022/08/12 05:54:50;;;;;;;0.82;0.63;;;;;;;29.87;37.72;98952.25;5110628;28;20051;-56
2022/08/12 05:57:16;;;;;;;0.68;0.57;;;;;;;29.85;38.19;98956.75;5109691;28;20040;-56
2022/08/12 05:59:42;;;;;;;0.70;0.60;;;;;;;29.85;37.82;98953.91;5110672;28;20051;-57
2022/08/12 06:02:09;;;;;;;0.50;0.50;;;;;;;29.85;37.80;98953.91;5110677;28;20127;-56
2022/08/12 06:04:35;;;;;;;0.80;0.60;;;;;;;29.69;37.52;98951.19;5110517;28;20055;-56
2022/08/12 06:07:01;;;;;;;0.93;0.73;;;;;;;29.51;37.96;98957.34;5110833;28;20051;-56
2022/08/12 06:09:29;;;;;;;0.93;0.60;;;;;;;29.38;38.94;98959.28;5110397;28;20040;-59
2022/08/12 06:11:55;;;;;;;0.82;0.60;;;;;;;29.19;39.24;98953.34;5110428;28;20042;-59
2022/08/12 06:14:21;;;;;;;1.10;0.70;;;;;;;29.06;39.74;98955.28;5110407;28;20055;-59
2022/08/12 06:16:47;;;;;;;0.98;0.70;;;;;;;28.99;39.62;98952.66;5110395;28;20047;-59
2022/08/12 06:19:13;;;;;;;0.80;0.60;;;;;;;28.97;39.67;98950.31;5110282;28;20103;-59
2022/08/12 06:21:38;;;;;;;1.13;0.70;;;;;;;28.97;38.67;98952.31;5110162;28;20595;-59
2022/08/12 06:24:04;;;;;;;0.88;0.65;;;;;;;28.94;38.92;98947.59;5110242;28;20039;-59
2022/08/12 06:26:29;;;;;;;0.68;0.50;;;;;;;28.91;39.58;98949.25;5110455;28;20044;-59
2022/08/12 06:28:57;;;;;;;0.82;0.60;;;;;;;28.82;40.08;98951.88;5110255;28;20040;-59
2022/08/12 06:31:23;;;;;;;0.77;0.60;;;;;;;28.77;39.84;98952.41;5110311;28;20135;-59
2022/08/12 06:33:49;;;;;;;1.45;0.82;;;;;;;28.77;39.89;98938.31;5110168;28;20169;-59
2022/08/12 06:36:17;;;;;;;0.70;0.50;;;;;;;28.80;39.95;98948.72;5110051;28;20069;-59
2022/08/12 06:38:44;;;;;;;0.68;0.60;;;;;;;28.83;38.99;98947.03;5110027;28;20044;-59
2022/08/12 06:43:55;;;;;;;0.90;0.70;;;;;;;28.77;40.10;98941.13;5109903;28;20497;-59
2022/08/12 06:46:24;;;;;;;1.30;0.90;;;;;;;28.65;39.98;98931.41;5109798;28;20069;-59
2022/08/12 06:48:55;;;;;;;1.00;0.70;;;;;;;28.72;39.98;98933.22;5109945;28;20176;-59
2022/08/12 06:51:21;;;;;;;0.70;0.60;;;;;;;28.71;40.13;98926.00;5109898;28;20474;-59
2022/08/12 06:53:47;;;;;;;1.02;0.60;;;;;;;28.74;39.37;98930.78;5109863;28;20122;-59
2022/08/12 06:56:12;;;;;;;0.98;0.68;;;;;;;28.72;38.83;98931.22;5110006;28;20568;-59
2022/08/12 06:58:38;;;;;;;0.90;0.70;;;;;;;28.69;39.68;98940.53;5109858;28;20403;-59
2022/08/12 07:01:05;;;;;;;1.00;0.60;;;;;;;28.70;40.02;98942.09;5109559;28;20126;-59
2022/08/12 07:03:30;;;;;;;1.27;0.82;;;;;;;28.60;40.36;98925.50;5109777;28;20047;-59
2022/08/12 07:05:58;;;;;;;0.60;0.60;;;;;;;28.60;40.14;98939.56;5109563;28;20058;-59
2022/08/12 07:08:29;;;;;;;1.15;0.80;;;;;;;28.61;40.25;98933.50;5111506;28;20085;-59
2022/08/12 07:10:57;;;;;;;0.80;0.60;;;;;;;28.70;40.02;98941.31;5113395;28;20036;-59
2022/08/12 07:13:30;;;;;;;0.77;0.60;;;;;;;28.72;39.86;98944.47;5113512;28;20074;-59
2022/08/12 07:15:57;;;;;;;0.93;0.60;;;;;;;28.81;39.76;98935.44;5113133;28;20040;-59
2022/08/12 07:18:27;;;;;;;0.82;0.65;;;;;;;28.84;39.88;98937.34;5113429;28;20096;-59
2022/08/12 07:20:52;;;;;;;0.98;0.65;;;;;;;28.83;39.16;98944.22;5112734;28;20525;-59
2022/08/12 07:23:18;;;;;;;0.88;0.70;;;;;;;28.78;39.60;98943.50;5112877;28;20048;-59
2022/08/12 07:25:44;;;;;;;0.65;0.55;;;;;;;28.72;39.98;98936.84;5112977;28;20058;-59
2022/08/12 07:28:11;;;;;;;0.88;0.70;;;;;;;28.63;40.13;98939.47;5113043;28;20044;-59
2022/08/12 07:30:39;;;;;;;0.65;0.55;;;;;;;28.59;39.97;98940.81;5113102;28;20491;-59
2022/08/12 07:33:07;;;;;;;1.02;0.80;;;;;;;28.62;39.84;98937.09;5112973;28;20040;-59
2022/08/12 07:35:34;;;;;;;0.90;0.65;;;;;;;28.70;39.71;98939.28;5113033;28;20081;-58
2022/08/12 07:38:01;;;;;;;0.80;0.60;;;;;;;28.75;39.44;98935.94;5112889;28;20047;-59
2022/08/12 07:40:28;;;;;;;0.70;0.60;;;;;;;28.78;39.49;98937.09;5113136;28;20066;-59
2022/08/12 07:42:55;;;;;;;0.73;0.55;;;;;;;28.83;39.58;98927.31;5108813;28;20040;-58
2022/08/12 07:45:20;;;;;;;1.60;0.80;;;;;;;28.86;39.43;98926.44;5112815;28;20511;-59
2022/08/12 07:47:47;;;;;;;1.23;0.73;;;;;;;28.85;39.38;98927.66;5112829;28;20067;-59
2022/08/12 07:50:15;;;;;;;0.95;0.60;;;;;;;28.86;39.32;98927.22;5112846;28;20066;-59
2022/08/12 07:52:42;;;;;;;0.90;0.60;;;;;;;28.89;39.35;98917.13;5112793;28;20380;-59
2022/08/12 07:55:09;;;;;;;0.93;0.50;;;;;;;28.85;38.46;98913.59;5112648;28;20039;-58
2022/08/12 07:57:52;;;;;;;0.70;0.60;;;;;;;28.78;38.98;98923.00;5112468;28;20047;-59
2022/08/12 08:00:17;;;;;;;1.10;0.70;;;;;;;28.71;38.96;98912.72;5112481;28;20121;-59
2022/08/12 08:02:42;;;;;;;0.80;0.65;;;;;;;28.70;39.41;98910.34;5112546;28;20407;-59
2022/08/12 08:05:08;;;;;;;0.93;0.60;;;;;;;28.67;39.27;98905.63;5112425;28;20044;-59
2022/08/12 08:07:33;;;;;;;0.77;0.60;;;;;;;28.69;39.18;98903.16;5112618;28;20082;-59
2022/08/12 08:10:01;;;;;;;1.10;0.73;;;;;;;28.72;39.04;98899.44;5112416;28;20043;-59
2022/08/12 08:15:14;;;;;;;0.90;0.70;;;;;;;28.76;38.78;98889.69;5112422;28;20047;-59
2022/08/12 08:17:39;;;;;;;1.00;0.70;;;;;;;28.77;38.72;98894.06;5112249;28;20085;-59
2022/08/12 08:20:08;;;;;;;1.08;0.68;;;;;;;28.79;38.82;98890.81;5111035;28;20044;-59
2022/08/12 08:22:37;;;;;;;0.93;0.55;;;;;;;28.79;38.70;98891.63;5111881;28;20503;-59
2022/08/12 08:25:03;;;;;;;0.63;0.60;;;;;;;28.79;38.56;98885.19;5112243;28;20039;-59
2022/08/12 08:27:44;;;;;;;0.95;0.70;;;;;;;28.80;38.38;98889.59;5110164;28;20476;-59
2022/08/12 08:30:10;;;;;;;0.98;0.70;;;;;;;28.78;38.46;98883.59;5111817;28;20047;-59
2022/08/12 08:32:36;;;;;;;0.98;0.70;;;;;;;28.78;38.23;98886.41;5112006;28;20044;-59
2022/08/12 08:35:01;;;;;;;0.70;0.60;;;;;;;28.79;38.67;98882.38;5112011;28;20399;-59
2022/08/12 08:37:27;;;;;;;0.95;0.80;;;;;;;28.81;38.42;98881.94;5112004;28;20503;-59
2022/08/12 08:39:52;;;;;;;1.27;0.73;;;;;;;28.81;38.19;98881.94;5111938;28;20047;-59
2022/08/12 08:42:38;;;;;;;1.10;0.70;;;;;;;28.79;38.40;98880.38;5111927;28;20650;-59
2022/08/12 08:45:11;;;;;;;0.65;0.60;;;;;;;28.82;38.13;98883.53;5111914;28;20507;-59
2022/08/12 08:47:48;;;;;;;0.88;0.70;;;;;;;28.82;38.07;98873.06;5111958;28;20040;-59
2022/08/12 08:50:16;;;;;;;0.90;0.60;;;;;;;28.82;38.24;98873.06;5111958;28;20047;-59
2022/08/12 08:52:42;;;;;;;0.88;0.65;;;;;;;28.82;38.09;98867.41;5112007;28;20128;-59
2022/08/12 08:55:13;;;;;;;0.60;0.47;;;;;;;28.81;38.14;98871.47;5111824;28;20051;-59
2022/08/12 08:57:39;;;;;;;0.90;0.70;;;;;;;28.82;38.10;98858.97;5111584;28;20043;-59
2022/08/12 09:00:06;;;;;;;1.30;0.80;;;;;;;28.81;37.84;98853.78;5111448;28;20035;-59
2022/08/12 09:02:31;;;;;;;1.00;0.60;;;;;;;28.78;38.12;98849.81;5111654;28;20040;-59
2022/08/12 09:04:57;;;;;;;1.02;0.57;;;;;;;28.79;37.73;98845.78;5111557;28;20504;-59
2022/08/12 09:07:22;;;;;;;0.85;0.57;;;;;;;28.79;37.71;98846.59;5111564;28;20411;-59
2022/08/12 09:09:50;;;;;;;1.25;0.70;;;;;;;28.81;37.63;98851.78;5111361;28;20036;-59
2022/08/12 09:15:00;;;;;;;0.70;0.60;;;;;;;28.77;38.11;98842.63;5111370;28;20100;-59
2022/08/12 09:17:25;;;;;;;0.57;0.57;;;;;;;28.75;38.13;98842.28;5111391;28;20044;-59
2022/08/12 09:19:50;;;;;;;0.50;0.50;;;;;;;28.74;38.00;98835.88;5111096;28;20089;-59
2022/08/12 09:22:16;;;;;;;1.13;0.80;;;;;;;28.76;37.82;98830.56;5111332;28;20099;-59
2022/08/12 09:24:41;;;;;;;0.80;0.70;;;;;;;28.77;38.10;98837.00;5111283;28;20051;-59
2022/08/12 09:27:07;;;;;;;0.47;0.40;;;;;;;28.75;38.18;98834.63;5111243;28;20381;-59
2022/08/12 09:29:33;;;;;;;0.68;0.52;;;;;;;28.78;38.09;98832.94;5111054;28;20407;-59
2022/08/12 09:31:59;;;;;;;0.50;0.50;;;;;;;28.80;38.41;98833.31;5111040;28;20044;-59
2022/08/12 09:34:28;;;;;;;0.75;0.60;;;;;;;28.82;37.99;98822.38;5111004;28;20048;-59
2022/08/12 09:36:54;;;;;;;0.93;0.70;;;;;;;28.83;38.05;98835.22;5111124;28;20558;-59
2022/08/12 09:39:20;;;;;;;0.98;0.70;;;;;;;28.84;38.16;98824.75;5110951;28;20513;-59
2022/08/12 09:45:19;;;;;;;0.80;0.70;;;;;;;28.86;38.13;98817.44;5111032;28;20345;-59
2022/08/12 09:47:15;;;;;;;0.95;0.60;;;;;;;28.89;38.03;98810.91;5110982;28;20058;-59
2022/08/12 09:49:41;;;;;;;0.60;0.50;;;;;;;28.91;37.63;98804.88;5110838;28;20040;-59
2022/08/12 09:52:06;;;;;;;0.98;0.65;;;;;;;28.87;38.25;98802.16;5110751;28;20118;-59
2022/08/12 09:54:31;;;;;;;0.82;0.60;;;;;;;28.87;37.99;98792.91;5110708;28;20062;-59
2022/08/12 09:56:57;;;;;;;0.73;0.50;;;;;;;28.91;38.14;98796.44;5110797;28;20055;-59
2022/08/12 09:59:22;;;;;;;0.90;0.68;;;;;;;28.92;37.97;98792.38;5110353;28;20081;-59
2022/08/12 10:01:48;;;;;;;1.02;0.70;;;;;;;28.91;38.06;98791.59;5110441;28;20526;-60
2022/08/12 10:04:14;;;;;;;2.33;0.68;;;;;;;28.89;37.48;98787.63;5110563;28;20071;-59
2022/08/12 10:06:42;;;;;;;0.43;0.43;;;;;;;28.82;37.61;98785.00;5110615;28;20036;-59
2022/08/12 10:09:09;;;;;;;0.65;0.52;;;;;;;28.79;38.27;98789.47;5110602;28;20047;-59
2022/08/12 10:14:20;;;;;;;0.90;0.60;;;;;;;28.78;38.38;98779.47;5110714;28;20109;-59
2022/08/12 10:16:48;;;;;;;1.00;0.60;;;;;;;28.77;38.66;98772.25;5110454;28;20051;-59
2022/08/12 10:19:15;;;;;;;0.73;0.55;;;;;;;28.83;38.52;98778.13;5110234;28;20043;-59
2022/08/12 10:21:41;;;;;;;0.60;0.50;;;;;;;28.83;37.36;98778.13;5110511;28;20063;-59
2022/08/12 10:24:14;;;;;;;0.90;0.60;;;;;;;28.76;37.97;98765.03;5110351;28;20063;-58
2022/08/12 10:29:38;;;;;;;1.23;0.70;;;;;;;28.66;38.71;98766.94;5110258;28;20454;-59
2022/08/12 10:32:08;;;;;;;0.80;0.50;;;;;;;28.70;38.64;98761.19;5109940;28;20071;-59
2022/08/12 10:34:34;;;;;;;0.60;0.52;;;;;;;28.74;38.62;98757.06;5110216;28;20046;-59
2022/08/12 10:37:02;;;;;;;0.63;0.50;;;;;;;28.77;38.12;98761.00;5110070;28;20101;-59
2022/08/12 10:39:34;;;;;;;0.88;0.60;;;;;;;28.71;38.21;98752.28;5110232;28;20039;-59
2022/08/12 10:45:06;;;;;;;1.00;0.65;;;;;;;28.66;38.57;98738.78;5027216;28;20046;-59
2022/08/12 10:47:34;;;;;;;0.80;0.50;;;;;;;28.67;38.71;98742.41;5027155;28;20547;-59
2022/08/12 10:50:00;;;;;;;1.23;0.68;;;;;;;28.68;38.67;98733.50;5027253;28;20531;-59
2022/08/12 10:52:29;;;;;;;1.00;0.50;;;;;;;28.71;38.73;98731.81;5027138;28;20552;-59
2022/08/12 10:54:55;;;;;;;0.70;0.60;;;;;;;28.74;38.64;98725.31;5027152;28;20049;-59
2022/08/12 10:57:25;;;;;;;0.73;0.68;;;;;;;28.78;38.18;98717.53;5027163;28;20046;-59
2022/08/12 10:59:54;;;;;;;0.77;0.50;;;;;;;28.73;38.11;98709.66;5027067;28;20092;-59
2022/08/12 11:02:21;;;;;;;0.82;0.55;;;;;;;28.68;38.53;98710.19;5026830;28;20042;-59
2022/08/12 11:04:47;;;;;;;0.77;0.65;;;;;;;28.68;38.61;98704.56;5026988;28;20529;-57
2022/08/12 11:07:14;;;;;;;1.25;0.63;;;;;;;28.68;38.50;98696.91;5026874;28;20051;-57
2022/08/12 11:09:41;;;;;;;0.60;0.50;;;;;;;28.71;38.51;98698.03;5027040;28;20425;-57
2022/08/12 11:12:06;;;;;;;0.65;0.60;;;;;;;28.74;38.33;98703.56;5026852;28;20060;-56
2022/08/12 11:14:33;;;;;;;0.77;0.50;;;;;;;28.76;38.22;98689.06;5026827;28;20042;-56
2022/08/12 11:17:07;;;;;;;0.75;0.50;;;;;;;28.77;38.10;98685.00;5026919;28;20046;-59
2022/08/12 11:19:38;;;;;;;0.90;0.60;;;;;;;28.74;38.23;98683.09;5031284;28;20057;-59
2022/08/12 11:22:05;;;;;;;0.98;0.70;;;;;;;28.72;38.58;98685.53;5109550;28;20200;-59
2022/08/12 11:24:30;;;;;;;0.75;0.52;;;;;;;28.70;38.54;98685.22;5109653;28;20040;-59
2022/08/12 11:26:58;;;;;;;0.70;0.50;;;;;;;28.68;38.85;98668.78;5109713;28;20040;-59
2022/08/12 11:29:26;;;;;;;0.70;0.50;;;;;;;28.71;38.51;98672.72;5109474;28;20081;-59
2022/08/12 11:31:52;;;;;;;0.70;0.60;;;;;;;28.73;38.44;98675.88;5109428;28;20120;-59
2022/08/12 11:34:17;;;;;;;0.60;0.55;;;;;;;28.78;38.40;98666.88;5109533;28;20042;-59
2022/08/12 11:36:53;;;;;;;0.70;0.60;;;;;;;28.82;38.36;98653.50;5109556;28;20132;-59
2022/08/12 11:39:20;;;;;;;0.70;0.60;;;;;;;28.86;38.36;98653.38;5109250;28;20584;-59
2022/08/12 11:41:45;;;;;;;0.75;0.60;;;;;;;28.83;37.75;98652.25;5109324;28;20051;-59
2022/08/12 11:44:11;;;;;;;1.17;0.50;;;;;;;28.78;37.73;98644.34;5109352;28;20027;-59
2022/08/12 11:46:37;;;;;;;0.75;0.50;;;;;;;28.75;38.50;98648.88;5109215;28;20464;-59
2022/08/12 11:49:03;;;;;;;0.77;0.55;;;;;;;28.72;38.59;98640.50;5109093;28;20048;-59
2022/08/12 11:51:30;;;;;;;0.80;0.50;;;;;;;28.72;38.45;98635.69;5109239;28;20048;-59
2022/08/12 11:53:55;;;;;;;0.65;0.50;;;;;;;28.73;38.43;98634.47;5108953;28;20143;-59
2022/08/12 11:56:21;;;;;;;0.77;0.50;;;;;;;28.75;38.52;98622.75;5111725;28;20132;-59
2022/08/12 11:58:47;;;;;;;0.95;0.60;;;;;;;28.81;38.33;98622.97;5112510;28;20044;-59
2022/08/12 12:01:13;;;;;;;0.95;0.68;;;;;;;28.84;38.05;98622.06;5112322;28;20525;-59
2022/08/12 12:03:39;;;;;;;0.80;0.60;;;;;;;28.88;38.23;98623.56;5112512;28;20047;-59
2022/08/12 12:06:04;;;;;;;1.02;0.50;;;;;;;28.85;37.62;98613.16;5112420;28;20092;-59
2022/08/12 12:08:30;;;;;;;0.82;0.60;;;;;;;28.79;38.07;98609.34;5112616;28;20048;-59
2022/08/12 12:10:56;;;;;;;0.88;0.55;;;;;;;28.76;38.54;98594.16;5112351;28;20410;-59
2022/08/12 12:13:22;;;;;;;0.68;0.55;;;;;;;28.73;38.47;98588.63;5112201;28;20499;-59
2022/08/12 12:15:47;;;;;;;0.95;0.60;;;;;;;28.76;38.45;98584.91;5112550;28;20420;-59
2022/08/12 12:18:24;;;;;;;0.75;0.60;;;;;;;28.77;38.33;98589.31;5112106;28;20067;-59
2022/08/12 12:20:52;;;;;;;0.80;0.50;;;;;;;28.82;38.39;98585.16;5112061;28;20036;-59
2022/08/12 12:23:18;;;;;;;0.85;0.60;;;;;;;28.87;38.01;98573.34;5112251;28;20051;-59
2022/08/12 12:25:43;;;;;;;1.05;0.63;;;;;;;28.82;37.02;98576.69;5112316;28;20070;-59
2022/08/12 12:28:09;;;;;;;0.70;0.57;;;;;;;28.76;38.51;98571.63;5112139;28;20130;-59
2022/08/12 12:30:36;;;;;;;0.70;0.60;;;;;;;28.73;38.42;98566.13;5112119;28;20044;-59
2022/08/12 12:33:02;;;;;;;0.80;0.57;;;;;;;28.73;38.28;98557.69;5111991;28;20526;-59
2022/08/12 12:35:27;;;;;;;0.70;0.52;;;;;;;28.72;38.19;98554.09;5112101;28;20047;-59
2022/08/12 12:37:59;;;;;;;1.02;0.60;;;;;;;28.78;38.24;98566.31;5112057;28;20043;-59
2022/08/12 12:40:26;;;;;;;0.75;0.50;;;;;;;28.81;37.76;98561.84;5111914;28;20047;-59
2022/08/12 12:42:52;;;;;;;0.90;0.55;;;;;;;28.74;38.03;98567.69;5111957;28;20122;-59
2022/08/12 12:45:19;;;;;;;0.50;0.50;;;;;;;28.70;38.42;98552.94;5111783;28;20465;-59
2022/08/12 12:47:58;;;;;;;0.70;0.50;;;;;;;28.71;38.71;98554.50;5111693;28;20039;-59
2022/08/12 12:50:29;;;;;;;0.77;0.50;;;;;;;28.74;38.27;98564.88;5111826;28;20511;-58
2022/08/12 12:52:55;;;;;;;1.07;0.60;;;;;;;28.75;38.30;98546.75;5109467;28;20044;-59
2022/08/12 12:55:21;;;;;;;1.33;0.70;;;;;;;28.82;37.98;98551.38;5111726;28;20059;-59
2022/08/12 12:57:47;;;;;;;0.60;0.55;;;;;;;28.75;38.00;98558.00;5111726;28;20400;-59
2022/08/12 13:00:15;;;;;;;1.40;0.68;;;;;;;28.69;38.48;98552.16;5111591;28;20596;-59
2022/08/12 13:02:51;;;;;;;0.80;0.50;;;;;;;28.67;38.51;98551.03;5111753;28;20131;-59
2022/08/12 13:05:24;;;;;;;0.60;0.50;;;;;;;28.68;38.50;98542.13;5111340;28;20043;-59
2022/08/12 13:07:51;;;;;;;0.60;0.50;;;;;;;28.71;38.32;98562.94;5111587;28;20138;-59
2022/08/12 13:10:17;;;;;;;0.82;0.63;;;;;;;28.74;38.23;98556.44;5111501;28;20526;-58
2022/08/12 13:12:42;;;;;;;0.60;0.50;;;;;;;28.78;38.18;98543.81;5111526;28;20052;-59
2022/08/12 13:15:14;;;;;;;0.90;0.70;;;;;;;28.80;38.22;98554.66;5107387;28;20140;-59
2022/08/12 13:17:54;;;;;;;0.82;0.60;;;;;;;28.84;37.96;98529.97;5111556;28;20503;-59
2022/08/12 13:20:21;;;;;;;0.40;0.40;;;;;;;28.83;37.97;98536.84;5111125;28;20051;-59
2022/08/12 13:22:46;;;;;;;0.90;0.50;;;;;;;28.87;37.89;98531.91;5111103;28;20441;-59